Time;durP1;ratioP1;P1;durP2;ratioP2;P2;SDS_P1;SDS_P2;PMS_P1;PMS_P2;Temp;Humidity;BMP_temperature;BMP_pressure;BME280_temperature;BME280_humidity;BME280_pressure;Samples;Min_cycle;Max_cycle;Signal;HPM_P1;HPM_P2
2022/12/10 00:01:51;;;;;;;15.60;6.85;;;1.90;1.00;;;;;;5032405;28;20028;-63
2022/12/10 00:04:18;;;;;;;13.68;7.30;;;1.90;1.00;;;;;;5031086;28;20485;-63
2022/12/10 00:06:43;;;;;;;15.25;7.35;;;1.90;99.90;;;;;;5032317;28;20571;-63
2022/12/10 00:09:15;;;;;;;21.55;7.38;;;1.80;99.90;;;;;;5032385;28;20049;-64
2022/12/10 00:11:42;;;;;;;18.67;6.43;;;1.70;99.90;;;;;;5032496;28;20474;-63
2022/12/10 00:14:09;;;;;;;11.15;4.97;;;1.60;99.90;;;;;;5032284;28;20087;-63
2022/12/10 00:16:35;;;;;;;16.27;6.63;;;1.50;99.90;;;;;;5032236;28;20083;-63
2022/12/10 00:19:02;;;;;;;13.23;6.97;;;1.40;99.90;;;;;;5031893;28;20509;-63
2022/12/10 00:21:31;;;;;;;10.68;5.75;;;1.30;99.90;;;;;;5032208;28;20029;-63
2022/12/10 00:23:58;;;;;;;15.23;5.55;;;1.30;99.90;;;;;;5031362;28;20478;-63
2022/12/10 00:26:27;;;;;;;15.88;6.03;;;1.40;99.90;;;;;;5031966;28;20485;-65
2022/12/10 00:28:55;;;;;;;15.05;6.13;;;1.30;99.90;;;;;;5031982;28;20052;-63
2022/12/10 00:31:30;;;;;;;12.90;5.40;;;1.20;99.90;;;;;;5032034;28;20032;-63
2022/12/10 00:33:58;;;;;;;10.55;5.70;;;1.10;99.90;;;;;;5032078;28;20059;-63
2022/12/10 00:36:27;;;;;;;14.63;5.68;;;1.00;99.90;;;;;;5032030;28;20094;-62
2022/12/10 00:38:54;;;;;;;10.93;5.22;;;0.90;99.90;;;;;;5031678;28;20037;-64
2022/12/10 00:41:19;;;;;;;8.93;4.85;;;0.90;99.90;;;;;;5031813;28;20053;-63
2022/12/10 00:43:45;;;;;;;17.67;5.78;;;0.90;99.90;;;;;;5031603;28;20437;-63
2022/12/10 00:46:13;;;;;;;14.75;5.80;;;0.90;99.90;;;;;;5031693;28;20152;-63
2022/12/10 00:48:39;;;;;;;13.05;5.65;;;1.00;99.90;;;;;;5031724;28;20105;-63
2022/12/10 00:51:08;;;;;;;13.30;5.22;;;1.20;1.00;;;;;;5031826;28;20026;-63
2022/12/10 00:53:35;;;;;;;10.88;5.38;;;1.20;99.90;;;;;;5031640;28;20108;-63
2022/12/10 00:56:01;;;;;;;14.32;5.70;;;1.10;99.90;;;;;;5031630;28;20021;-63
2022/12/10 00:58:29;;;;;;;16.45;5.35;;;1.00;99.90;;;;;;5031473;28;20076;-62
2022/12/10 01:01:05;;;;;;;14.93;5.85;;;1.00;99.90;;;;;;5031499;28;20386;-63
2022/12/10 01:03:31;;;;;;;9.82;4.05;;;1.00;99.90;;;;;;5031521;28;20040;-63
2022/12/10 01:05:57;;;;;;;11.60;4.72;;;1.00;1.00;;;;;;5031268;28;20041;-63
2022/12/10 01:08:22;;;;;;;12.07;4.65;;;1.00;99.90;;;;;;5031389;28;20635;-63
2022/12/10 01:10:53;;;;;;;11.82;5.03;;;1.00;99.90;;;;;;5031372;28;20034;-63
2022/12/10 01:13:18;;;;;;;13.13;5.13;;;1.20;1.00;;;;;;5031206;28;20470;-63
2022/12/10 01:15:44;;;;;;;10.40;4.75;;;1.30;1.00;;;;;;5031277;28;20029;-61
2022/12/10 01:18:10;;;;;;;11.55;5.55;;;1.30;99.90;;;;;;5031397;28;20521;-62
2022/12/10 01:20:36;;;;;;;9.98;5.15;;;1.50;99.90;;;;;;5031253;28;20107;-63
2022/12/10 01:23:02;;;;;;;14.27;5.40;;;1.40;99.90;;;;;;5031147;28;20025;-62
2022/12/10 01:25:28;;;;;;;10.20;5.13;;;1.40;99.90;;;;;;5031581;28;20091;-61
2022/12/10 01:27:54;;;;;;;9.82;4.60;;;1.40;99.90;;;;;;5029686;28;20021;-62
2022/12/10 01:30:19;;;;;;;10.32;4.68;;;1.40;99.90;;;;;;5031205;28;20386;-62
2022/12/10 01:32:45;;;;;;;12.10;5.07;;;1.50;99.90;;;;;;5031305;28;20460;-63
2022/12/10 01:35:11;;;;;;;12.52;5.20;;;1.50;99.90;;;;;;5029853;28;20025;-63
2022/12/10 01:37:36;;;;;;;13.45;5.22;;;1.30;99.90;;;;;;5035011;28;20112;-61
2022/12/10 01:40:02;;;;;;;11.38;4.78;;;1.10;99.90;;;;;;5035288;28;20036;-62
2022/12/10 01:42:28;;;;;;;13.73;4.93;;;0.90;99.90;;;;;;5034997;28;20083;-62
2022/12/10 01:44:58;;;;;;;10.77;5.78;;;0.90;99.90;;;;;;5035093;28;20063;-62
2022/12/10 01:47:23;;;;;;;9.80;5.40;;;1.10;99.90;;;;;;5034936;28;20033;-62
2022/12/10 01:49:49;;;;;;;14.10;5.07;;;1.00;99.90;;;;;;5034936;28;20048;-62
2022/12/10 01:52:15;;;;;;;14.70;5.88;;;0.80;99.90;;;;;;5034912;28;20626;-63
2022/12/10 01:54:43;;;;;;;20.38;6.22;;;0.70;99.90;;;;;;5035038;28;20021;-63
2022/12/10 01:57:22;;;;;;;11.98;5.97;;;0.70;99.90;;;;;;5033375;28;20104;-63
2022/12/10 01:59:56;;;;;;;17.90;6.03;;;0.60;99.90;;;;;;5034802;28;20088;-62
2022/12/10 02:02:34;;;;;;;12.70;6.00;;;0.60;99.90;;;;;;5034706;28;20032;-62
2022/12/10 02:05:27;;;;;;;13.60;6.97;;;0.60;99.90;;;;;;5034665;28;20026;-62
2022/12/10 02:08:02;;;;;;;14.18;6.28;;;0.50;99.90;;;;;;5034796;28;20123;-63
2022/12/10 02:10:36;;;;;;;12.48;6.22;;;0.40;99.90;;;;;;5034700;28;20029;-62
2022/12/10 02:13:21;;;;;;;13.20;5.72;;;0.30;99.90;;;;;;5034369;28;20516;-61
2022/12/10 02:16:14;;;;;;;18.23;7.53;;;0.40;99.90;;;;;;5034601;28;20033;-62
2022/12/10 02:19:06;;;;;;;19.92;7.07;;;0.40;1.00;;;;;;5033096;28;20394;-62
2022/12/10 02:21:40;;;;;;;16.17;6.07;;;0.30;1.00;;;;;;5034083;28;20681;-63
2022/12/10 02:24:13;;;;;;;12.00;6.28;;;0.30;1.00;;;;;;5034170;28;20077;-62
2022/12/10 02:27:16;;;;;;;14.25;6.35;;;0.30;1.00;;;;;;5034474;28;20029;-62
2022/12/10 02:29:44;;;;;;;17.05;5.53;;;0.10;1.00;;;;;;5034315;28;20028;-61
2022/12/10 02:32:14;;;;;;;19.17;5.68;;;0.10;1.00;;;;;;5034040;28;20033;-61
2022/12/10 02:34:50;;;;;;;12.98;4.35;;;0.00;1.00;;;;;;5033909;28;20072;-62
2022/12/10 02:37:27;;;;;;;8.15;3.50;;;0.00;1.00;;;;;;5033988;28;20022;-62
2022/12/10 02:39:57;;;;;;;6.38;3.15;;;-0.10;1.00;;;;;;5034045;28;20068;-62
2022/12/10 02:42:25;;;;;;;5.20;2.15;;;-0.10;1.00;;;;;;5034364;28;20481;-62
2022/12/10 02:44:52;;;;;;;10.15;2.50;;;-0.20;1.00;;;;;;5033833;28;20065;-61
2022/12/10 02:47:19;;;;;;;8.10;2.75;;;-0.20;1.00;;;;;;5032877;28;20018;-63
2022/12/10 02:49:49;;;;;;;6.65;2.30;;;-0.20;1.00;;;;;;5033966;28;20021;-63
2022/12/10 02:52:18;;;;;;;4.80;1.67;;;-0.10;13.70;;;;;;5033925;28;20040;-62
2022/12/10 02:54:47;;;;;;;5.63;1.80;;;0.10;34.60;;;;;;5033651;28;20117;-62
2022/12/10 02:57:16;;;;;;;2.65;2.10;;;0.10;30.40;;;;;;5033681;28;20075;-62
2022/12/10 03:00:03;;;;;;;6.68;2.30;;;0.10;18.20;;;;;;5033529;28;20045;-62
2022/12/10 03:03:00;;;;;;;2.70;1.92;;;0.20;10.50;;;;;;5033678;28;20037;-62
2022/12/10 03:05:51;;;;;;;6.97;1.92;;;0.10;1.00;;;;;;5033281;28;20029;-62
2022/12/10 03:08:34;;;;;;;5.55;1.80;;;0.10;1.00;;;;;;5033554;28;20030;-62
2022/12/10 03:11:14;;;;;;;3.97;2.08;;;0.10;1.00;;;;;;5033477;28;20026;-60
2022/12/10 03:13:49;;;;;;;4.68;1.98;;;0.00;1.00;;;;;;5033371;28;20054;-61
2022/12/10 03:16:17;;;;;;;5.50;2.13;;;0.00;1.00;;;;;;5033171;28;20539;-64
2022/12/10 03:18:45;;;;;;;4.97;2.33;;;0.00;1.00;;;;;;5033262;28;20053;-63
2022/12/10 03:21:13;;;;;;;4.68;2.10;;;-0.10;1.00;;;;;;5033308;28;20060;-62
2022/12/10 03:23:42;;;;;;;6.55;2.40;;;-0.20;1.00;;;;;;5033309;28;20179;-62
2022/12/10 03:26:09;;;;;;;7.50;2.50;;;-0.20;1.00;;;;;;5033146;28;20502;-62
2022/12/10 03:28:41;;;;;;;9.52;2.60;;;-0.10;1.00;;;;;;5033006;28;20033;-61
2022/12/10 03:31:10;;;;;;;6.03;2.55;;;-0.20;1.00;;;;;;5033046;28;20014;-62
2022/12/10 03:33:37;;;;;;;7.10;2.55;;;-0.20;1.00;;;;;;5033044;28;20033;-62
2022/12/10 03:36:04;;;;;;;16.73;3.35;;;-0.20;3.60;;;;;;5033129;28;20037;-61
2022/12/10 03:38:30;;;;;;;6.13;2.85;;;-0.20;1.00;;;;;;5032804;28;20520;-62
2022/12/10 03:40:56;;;;;;;7.28;3.40;;;-0.30;1.00;;;;;;5032933;28;20025;-61
2022/12/10 03:43:22;;;;;;;5.60;3.20;;;-0.40;1.00;;;;;;5033079;28;20030;-62
2022/12/10 03:45:48;;;;;;;5.18;2.78;;;-0.40;1.00;;;;;;5032913;28;20526;-62
2022/12/10 03:48:13;;;;;;;9.80;3.50;;;-0.50;1.00;;;;;;5032733;28;20060;-62
2022/12/10 03:50:39;;;;;;;9.15;3.30;;;-0.60;4.10;;;;;;5032714;28;20026;-62
2022/12/10 03:53:05;;;;;;;8.38;3.88;;;-0.70;17.40;;;;;;5032646;28;20104;-62
2022/12/10 03:55:31;;;;;;;6.82;3.08;;;-0.50;68.50;;;;;;5032669;28;20470;-61
2022/12/10 03:57:56;;;;;;;10.18;4.03;;;-0.60;57.60;;;;;;5032526;28;20060;-61
2022/12/10 04:00:22;;;;;;;11.45;3.78;;;-0.60;53.90;;;;;;5032224;28;20034;-61
2022/12/10 04:02:48;;;;;;;17.35;4.18;;;-0.60;92.20;;;;;;5032338;28;20014;-62
2022/12/10 04:05:13;;;;;;;9.30;3.45;;;-0.60;99.90;;;;;;5032644;28;20104;-61
2022/12/10 04:07:39;;;;;;;10.95;4.15;;;-0.40;99.90;;;;;;5032441;28;20132;-61
2022/12/10 04:10:05;;;;;;;7.68;2.80;;;-0.40;99.90;;;;;;5032756;28;20037;-60
2022/12/10 04:12:31;;;;;;;9.85;3.53;;;-0.40;99.90;;;;;;5032565;28;20144;-62
2022/12/10 04:17:41;;;;;;;7.65;2.80;;;-0.50;99.90;;;;;;5032474;28;20121;-61
2022/12/10 04:26:51;;;;;;;4.55;2.78;;;-0.50;99.90;;;;;;5032256;28;20060;-61
2022/12/10 04:28:21;;;;;;;5.45;2.42;;;-0.60;99.90;;;;;;5032151;28;20033;-61
2022/12/10 04:30:47;;;;;;;5.47;2.33;;;-0.60;99.90;;;;;;5031757;28;20025;-61
2022/12/10 04:33:12;;;;;;;8.80;3.20;;;-0.70;99.90;;;;;;5030616;28;20029;-62
2022/12/10 04:35:38;;;;;;;10.07;3.45;;;-0.70;99.90;;;;;;5031659;28;20018;-60
2022/12/10 04:38:04;;;;;;;10.52;3.05;;;-0.60;99.90;;;;;;5031852;28;20124;-61
2022/12/10 04:40:29;;;;;;;7.00;3.15;;;-0.50;99.90;;;;;;5031778;28;20022;-62
2022/12/10 04:42:55;;;;;;;7.22;2.63;;;-0.50;99.90;;;;;;5031626;28;20096;-61
2022/12/10 04:45:21;;;;;;;8.35;3.03;;;-0.40;99.90;;;;;;5031682;28;20032;-61
2022/12/10 04:47:46;;;;;;;4.80;3.08;;;-0.50;99.90;;;;;;5031850;28;20026;-60
2022/12/10 04:50:12;;;;;;;7.78;3.38;;;-0.40;99.90;;;;;;5031749;28;20490;-61
2022/12/10 04:52:38;;;;;;;5.35;2.45;;;-0.40;99.90;;;;;;5031848;28;20029;-61
2022/12/10 04:55:05;;;;;;;6.20;2.72;;;-0.40;99.90;;;;;;5031540;28;20607;-61
2022/12/10 04:57:31;;;;;;;5.43;2.78;;;-0.40;99.90;;;;;;5029989;28;20121;-61
2022/12/10 04:59:56;;;;;;;12.50;3.67;;;-0.50;99.90;;;;;;5031432;28;20108;-61
2022/12/10 05:02:22;;;;;;;5.78;2.80;;;-0.50;99.90;;;;;;5031723;28;20024;-61
2022/12/10 05:04:49;;;;;;;8.52;3.75;;;-0.40;99.90;;;;;;5031293;28;20017;-61
2022/12/10 05:07:15;;;;;;;11.55;3.60;;;-0.30;99.90;;;;;;5031096;28;20046;-67
2022/12/10 05:09:40;;;;;;;9.98;3.58;;;-0.10;99.90;;;;;;5031101;28;20618;-60
2022/12/10 05:12:06;;;;;;;8.07;3.20;;;-0.10;99.90;;;;;;5030795;28;20037;-61
2022/12/10 05:14:32;;;;;;;6.72;3.60;;;0.10;99.90;;;;;;5031441;28;20094;-61
2022/12/10 05:16:58;;;;;;;5.57;3.40;;;0.10;99.90;;;;;;5031283;28;20018;-61
2022/12/10 05:19:25;;;;;;;8.68;3.67;;;0.30;99.90;;;;;;5031131;28;20088;-61
2022/12/10 05:24:37;;;;;;;9.73;3.40;;;0.40;99.90;;;;;;5031294;28;20108;-61
2022/12/10 05:27:02;;;;;;;8.25;3.30;;;0.40;99.90;;;;;;5031205;28;20044;-60
2022/12/10 05:29:28;;;;;;;10.65;3.85;;;0.30;99.90;;;;;;5031240;28;20079;-61
2022/12/10 05:31:54;;;;;;;8.15;4.07;;;0.20;99.90;;;;;;5031265;28;20028;-61
2022/12/10 05:34:20;;;;;;;7.55;4.10;;;0.40;99.90;;;;;;5031119;28;20416;-61
2022/12/10 05:36:46;;;;;;;7.22;3.80;;;0.50;99.90;;;;;;5031140;28;20045;-61
2022/12/10 05:39:11;;;;;;;6.82;3.72;;;0.50;99.90;;;;;;5031000;28;20033;-61
2022/12/10 05:41:38;;;;;;;7.43;3.72;;;0.50;99.90;;;;;;5030830;28;20547;-61
2022/12/10 05:44:05;;;;;;;7.45;3.63;;;0.60;99.90;;;;;;5030922;28;20028;-62
2022/12/10 05:46:32;;;;;;;7.53;4.15;;;0.50;99.90;;;;;;5033159;28;20026;-61
2022/12/10 05:48:59;;;;;;;16.38;4.13;;;0.50;99.90;;;;;;5039460;28;20037;-60
2022/12/10 05:51:28;;;;;;;7.35;3.65;;;0.40;99.90;;;;;;5045223;28;20041;-61
2022/12/10 05:53:54;;;;;;;12.57;4.50;;;0.30;99.90;;;;;;5050897;28;20493;-64
2022/12/10 05:56:22;;;;;;;11.73;4.60;;;0.20;99.90;;;;;;5050993;28;20048;-61
2022/12/10 05:58:50;;;;;;;5.28;3.67;;;0.20;99.90;;;;;;5042773;28;20036;-61
2022/12/10 06:01:19;;;;;;;7.88;3.47;;;0.10;99.90;;;;;;5035938;28;20475;-60
2022/12/10 06:03:45;;;;;;;12.60;5.55;;;0.00;99.90;;;;;;5030893;28;20025;-61
2022/12/10 06:06:11;;;;;;;14.80;4.53;;;-0.10;99.90;;;;;;5033123;28;20108;-61
2022/12/10 06:08:37;;;;;;;8.25;4.32;;;-0.10;99.90;;;;;;5040233;28;20028;-61
2022/12/10 06:11:04;;;;;;;8.45;3.85;;;-0.10;99.90;;;;;;5039004;28;20022;-61
2022/12/10 06:13:30;;;;;;;12.13;4.32;;;-0.10;99.90;;;;;;5040629;28;20061;-61
2022/12/10 06:15:56;;;;;;;10.30;4.72;;;-0.10;99.90;;;;;;5036063;28;20053;-61
2022/12/10 06:18:21;;;;;;;12.65;4.70;;;-0.10;99.90;;;;;;5030542;28;20091;-60
2022/12/10 06:20:47;;;;;;;6.78;3.78;;;-0.20;99.90;;;;;;5030709;28;20030;-60
2022/12/10 06:23:13;;;;;;;6.20;4.15;;;-0.20;99.90;;;;;;5033901;28;20067;-61
2022/12/10 06:25:39;;;;;;;9.27;4.28;;;0.10;1.00;;;;;;5034360;28;20029;-60
2022/12/10 06:28:07;;;;;;;8.18;3.72;;;0.40;1.00;;;;;;5034443;28;20470;-61
2022/12/10 06:30:33;;;;;;;10.05;3.83;;;0.50;29.00;;;;;;5034043;28;20057;-61
2022/12/10 06:33:00;;;;;;;11.18;4.85;;;0.60;6.90;;;;;;5034283;28;20079;-60
2022/12/10 06:35:26;;;;;;;8.23;3.95;;;0.60;1.00;;;;;;5033895;28;20032;-61
2022/12/10 06:37:52;;;;;;;10.70;4.35;;;0.60;1.00;;;;;;5033985;28;20068;-61
2022/12/10 06:40:18;;;;;;;12.52;4.97;;;0.70;8.20;;;;;;5034162;28;20053;-61
2022/12/10 06:42:44;;;;;;;7.65;4.18;;;0.80;14.40;;;;;;5034078;28;20034;-60
2022/12/10 06:45:10;;;;;;;9.52;3.97;;;0.90;21.30;;;;;;5034015;28;20030;-61
2022/12/10 06:47:36;;;;;;;7.75;4.72;;;1.00;45.70;;;;;;5034373;28;20018;-61
2022/12/10 06:50:02;;;;;;;7.15;3.75;;;1.10;51.90;;;;;;5034075;28;20029;-61
2022/12/10 06:52:27;;;;;;;9.98;4.30;;;1.10;32.60;;;;;;5033910;28;20029;-61
2022/12/10 06:54:54;;;;;;;10.40;4.45;;;1.20;15.60;;;;;;5033855;28;20053;-61
2022/12/10 06:57:21;;;;;;;7.43;4.22;;;1.20;1.70;;;;;;5033776;28;20020;-61
2022/12/10 06:59:47;;;;;;;11.38;4.35;;;1.20;1.00;;;;;;5033693;28;20094;-60
2022/12/10 07:02:13;;;;;;;8.57;4.07;;;1.00;1.00;;;;;;5033834;28;20029;-61
2022/12/10 07:04:38;;;;;;;12.00;4.60;;;1.00;99.90;;;;;;5033659;28;20055;-61
2022/12/10 07:07:06;;;;;;;7.55;4.07;;;0.80;99.90;;;;;;5033301;28;20068;-60
2022/12/10 07:09:32;;;;;;;10.05;4.53;;;0.70;99.90;;;;;;5033606;28;20028;-60
2022/12/10 07:11:58;;;;;;;13.65;4.70;;;0.70;99.90;;;;;;5033271;28;20100;-60
2022/12/10 07:14:24;;;;;;;11.18;5.28;;;0.80;1.00;;;;;;5033532;28;20029;-61
2022/12/10 07:16:49;;;;;;;7.65;4.68;;;1.00;14.90;;;;;;5033453;28;20017;-61
2022/12/10 07:19:15;;;;;;;9.65;4.65;;;1.10;32.00;;;;;;5033259;28;20038;-62
2022/12/10 07:21:42;;;;;;;8.90;4.60;;;1.10;15.00;;;;;;5033388;28;20026;-61
2022/12/10 07:24:13;;;;;;;9.45;4.32;;;1.10;1.00;;;;;;5033289;28;20029;-60
2022/12/10 07:26:41;;;;;;;10.63;4.85;;;1.10;1.00;;;;;;5033420;28;20032;-61
2022/12/10 07:29:09;;;;;;;13.95;4.95;;;1.00;1.00;;;;;;5033293;28;20473;-60
2022/12/10 07:31:36;;;;;;;14.88;5.15;;;1.00;1.00;;;;;;5033519;28;20045;-61
2022/12/10 07:34:01;;;;;;;8.52;4.13;;;1.00;1.00;;;;;;5032367;28;20413;-61
2022/12/10 07:36:27;;;;;;;7.57;3.80;;;0.80;99.90;;;;;;5031577;28;20075;-61
2022/12/10 07:38:54;;;;;;;9.70;4.65;;;0.60;99.90;;;;;;5033723;28;20037;-61
2022/12/10 07:41:21;;;;;;;7.30;4.43;;;0.40;99.90;;;;;;5033231;28;20096;-60
2022/12/10 07:43:47;;;;;;;11.13;4.28;;;0.30;99.90;;;;;;5032934;28;20033;-60
2022/12/10 07:46:18;;;;;;;8.75;4.20;;;0.20;99.90;;;;;;5033012;28;20025;-62
2022/12/10 07:48:45;;;;;;;13.60;5.18;;;0.20;99.90;;;;;;5033048;28;20025;-60
2022/12/10 07:51:12;;;;;;;11.57;5.00;;;0.30;99.90;;;;;;5032830;28;20060;-59
2022/12/10 07:53:38;;;;;;;8.98;4.55;;;0.30;1.00;;;;;;5046124;28;20116;-59
2022/12/10 07:56:04;;;;;;;11.82;4.43;;;0.20;99.90;;;;;;5051542;28;20100;-60
2022/12/10 07:58:30;;;;;;;9.00;4.47;;;0.20;99.90;;;;;;5043854;28;20038;-60
2022/12/10 08:00:56;;;;;;;11.43;5.40;;;0.20;99.90;;;;;;5032071;28;20036;-61
2022/12/10 08:03:21;;;;;;;13.95;5.63;;;0.30;1.00;;;;;;5032114;28;20029;-61
2022/12/10 08:05:47;;;;;;;9.93;5.22;;;0.40;1.00;;;;;;5032173;28;20041;-60
2022/12/10 08:08:13;;;;;;;11.65;5.13;;;0.50;1.00;;;;;;5033249;28;20394;-60
2022/12/10 08:10:39;;;;;;;7.40;4.65;;;0.60;4.20;;;;;;5031968;28;20038;-60
2022/12/10 08:13:06;;;;;;;11.60;4.63;;;0.60;3.20;;;;;;5032186;28;20033;-59
2022/12/10 08:15:32;;;;;;;14.40;5.28;;;0.70;43.50;;;;;;5031929;28;20022;-60
2022/12/10 08:17:59;;;;;;;11.05;4.57;;;0.80;27.30;;;;;;5033194;28;20039;-60
2022/12/10 08:20:25;;;;;;;18.48;5.78;;;0.80;37.70;;;;;;5032267;28;20091;-60
2022/12/10 08:22:51;;;;;;;11.85;5.85;;;1.00;91.80;;;;;;5031484;28;20029;-59
2022/12/10 08:25:17;;;;;;;11.38;5.45;;;1.10;99.90;;;;;;5031774;28;20059;-60
2022/12/10 08:27:43;;;;;;;11.40;5.07;;;1.10;98.30;;;;;;5032911;28;20029;-60
2022/12/10 08:30:09;;;;;;;14.38;4.57;;;1.10;42.20;;;;;;5031924;28;20079;-59
2022/12/10 08:32:35;;;;;;;16.98;5.50;;;0.90;1.00;;;;;;5031763;28;20030;-59
2022/12/10 08:35:00;;;;;;;10.27;4.72;;;0.80;1.00;;;;;;5031922;28;20030;-60
2022/12/10 08:37:26;;;;;;;11.48;5.20;;;0.70;99.90;;;;;;5030713;28;20024;-60
2022/12/10 08:39:52;;;;;;;14.77;4.82;;;0.70;1.00;;;;;;5031831;28;20532;-61
2022/12/10 08:42:17;;;;;;;9.13;4.80;;;0.70;1.00;;;;;;5033004;28;20029;-60
2022/12/10 08:44:43;;;;;;;9.65;5.07;;;0.70;1.00;;;;;;5044155;28;20405;-60
2022/12/10 08:47:09;;;;;;;12.93;5.20;;;0.70;1.00;;;;;;5044699;28;20021;-58
2022/12/10 08:49:35;;;;;;;13.15;4.82;;;0.70;1.00;;;;;;5035572;28;20525;-60
2022/12/10 08:52:00;;;;;;;9.13;5.13;;;0.80;1.00;;;;;;5043433;28;20385;-60
2022/12/10 08:54:26;;;;;;;11.63;5.25;;;0.80;10.60;;;;;;5050024;28;20025;-60
2022/12/10 08:56:52;;;;;;;20.45;5.60;;;0.90;39.90;;;;;;5051535;28;20025;-61
2022/12/10 08:59:18;;;;;;;11.48;5.18;;;1.00;59.00;;;;;;5051087;28;20052;-61
2022/12/10 09:01:43;;;;;;;10.23;5.97;;;1.00;68.50;;;;;;5045090;28;20036;-60
2022/12/10 09:04:09;;;;;;;9.15;5.20;;;1.00;64.40;;;;;;5032173;28;20521;-60
2022/12/10 09:06:35;;;;;;;12.40;5.88;;;1.00;61.30;;;;;;5046791;28;20037;-61
2022/12/10 09:09:01;;;;;;;9.88;4.43;;;1.10;82.10;;;;;;5051209;28;20029;-60
2022/12/10 09:11:32;;;;;;;10.13;5.10;;;1.20;99.90;;;;;;5031860;28;20029;-60
2022/12/10 09:13:59;;;;;;;13.45;5.70;;;1.40;99.90;;;;;;5039728;28;20068;-61
2022/12/10 09:16:33;;;;;;;10.85;5.30;;;1.60;99.90;;;;;;5049994;28;20041;-61
2022/12/10 09:19:00;;;;;;;14.60;5.47;;;1.70;99.90;;;;;;5044891;28;20033;-62
2022/12/10 09:21:25;;;;;;;11.88;5.35;;;1.80;99.90;;;;;;5032065;28;20489;-60
2022/12/10 09:23:51;;;;;;;14.43;5.28;;;1.80;99.90;;;;;;5038158;28;20056;-60
2022/12/10 09:26:17;;;;;;;11.27;5.95;;;1.80;99.90;;;;;;5044771;28;20031;-60
2022/12/10 09:28:44;;;;;;;12.23;5.55;;;1.70;98.40;;;;;;5050821;28;20120;-61
2022/12/10 09:31:11;;;;;;;11.32;5.22;;;1.60;30.30;;;;;;5037604;28;20095;-61
2022/12/10 09:33:37;;;;;;;13.70;4.75;;;1.60;24.90;;;;;;5031139;28;20041;-60
2022/12/10 09:36:06;;;;;;;14.38;5.00;;;1.60;1.10;;;;;;5030825;28;20280;-60
2022/12/10 09:38:37;;;;;;;12.82;5.13;;;1.50;1.00;;;;;;5031039;28;20049;-61
2022/12/10 09:41:10;;;;;;;10.52;5.57;;;1.50;1.00;;;;;;5030503;28;20109;-60
2022/12/10 09:43:55;;;;;;;12.82;5.68;;;1.50;1.00;;;;;;5030724;28;20105;-60
2022/12/10 09:46:23;;;;;;;11.80;5.82;;;1.50;1.00;;;;;;5030744;28;20115;-60
2022/12/10 09:49:13;;;;;;;11.30;5.45;;;1.60;5.10;;;;;;5031639;28;20081;-60
2022/12/10 09:51:39;;;;;;;15.30;5.45;;;1.60;21.20;;;;;;5030658;28;20025;-60
2022/12/10 09:54:23;;;;;;;12.02;5.20;;;1.60;53.10;;;;;;5041191;28;20036;-59
2022/12/10 09:56:51;;;;;;;14.60;5.45;;;1.80;99.90;;;;;;5052091;28;20024;-59
2022/12/10 09:59:28;;;;;;;12.05;6.07;;;1.80;99.90;;;;;;5049702;28;20042;-60
2022/12/10 10:02:20;;;;;;;20.77;7.40;;;2.00;99.90;;;;;;5047865;28;20036;-61
2022/12/10 10:04:47;;;;;;;10.25;4.78;;;2.10;99.90;;;;;;5053867;28;20029;-60
2022/12/10 10:07:28;;;;;;;11.57;4.85;;;2.20;99.90;;;;;;5047561;28;20123;-60
2022/12/10 10:10:00;;;;;;;9.27;4.00;;;2.40;99.90;;;;;;5044830;28;20105;-61
2022/12/10 10:12:31;;;;;;;10.38;4.35;;;2.60;99.90;;;;;;5049668;28;20025;-60
2022/12/10 10:14:57;;;;;;;12.47;4.73;;;2.60;99.90;;;;;;5051805;28;20444;-62
2022/12/10 10:17:37;;;;;;;7.57;4.43;;;2.70;99.90;;;;;;5035638;28;20468;-61
2022/12/10 10:20:03;;;;;;;9.32;4.60;;;2.80;99.90;;;;;;5034537;28;20041;-60
2022/12/10 10:22:30;;;;;;;12.75;5.82;;;2.80;99.90;;;;;;5044095;28;20043;-61
2022/12/10 10:24:56;;;;;;;10.80;5.10;;;2.90;96.50;;;;;;5053828;28;20029;-60
2022/12/10 10:27:26;;;;;;;9.98;4.10;;;3.00;76.30;;;;;;5052821;28;20044;-61
2022/12/10 10:29:54;;;;;;;10.20;4.65;;;3.10;84.20;;;;;;5041841;28;20516;-60
2022/12/10 10:32:39;;;;;;;5.45;3.58;;;3.20;84.00;;;;;;5034734;28;20453;-61
2022/12/10 10:35:06;;;;;;;8.73;3.60;;;3.40;54.20;;;;;;5042484;28;20101;-60
2022/12/10 10:37:42;;;;;;;11.00;4.15;;;3.50;2.30;;;;;;5039139;28;20147;-60
2022/12/10 10:40:27;;;;;;;11.25;4.47;;;3.60;1.00;;;;;;5050749;28;20473;-61
2022/12/10 10:42:56;;;;;;;13.18;4.75;;;3.70;99.90;;;;;;5053043;28;20025;-60
2022/12/10 10:45:41;;;;;;;12.20;4.72;;;3.80;99.90;;;;;;5053552;28;20083;-60
2022/12/10 10:48:16;;;;;;;10.75;4.60;;;4.00;99.90;;;;;;5044022;28;20248;-60
2022/12/10 10:50:43;;;;;;;16.95;6.97;;;4.10;99.90;;;;;;5035684;28;20096;-61
2022/12/10 10:53:26;;;;;;;12.75;5.00;;;4.10;99.90;;;;;;5033887;28;20060;-60
2022/12/10 10:55:53;;;;;;;;;;;4.20;99.90;;;;;;5036304;28;20024;-67
2022/12/10 10:58:24;;;;;;;6.00;3.92;;;4.30;58.50;;;;;;5033285;28;20009;-70
2022/12/10 11:01:07;;;;;;;7.78;4.53;;;4.40;1.00;;;;;;5033427;28;20034;-70
2022/12/10 11:03:35;;;;;;;9.50;4.43;;;4.40;1.00;;;;;;5034658;28;20025;-68
2022/12/10 11:06:06;;;;;;;9.55;4.30;;;4.50;1.00;;;;;;5047616;28;20045;-69
2022/12/10 11:08:34;;;;;;;6.93;4.13;;;4.50;99.90;;;;;;5045233;28;20032;-70
2022/12/10 11:11:06;;;;;;;7.68;3.78;;;4.60;99.90;;;;;;5049459;28;20110;-68
2022/12/10 11:13:37;;;;;;;7.95;4.47;;;4.60;99.90;;;;;;5040501;28;20124;-69
2022/12/10 11:16:18;;;;;;;10.07;3.35;;;4.60;99.90;;;;;;5052117;28;20477;-71
2022/12/10 11:19:04;;;;;;;8.85;4.13;;;4.80;99.90;;;;;;5053183;28;20032;-69
2022/12/10 11:21:32;;;;;;;9.15;4.28;;;4.90;99.90;;;;;;5034148;28;20120;-69
2022/12/10 11:23:59;;;;;;;5.88;3.38;;;4.90;99.90;;;;;;5033242;28;20531;-70
2022/12/10 11:26:55;;;;;;;9.70;3.80;;;4.90;99.90;;;;;;5044097;28;20037;-69
2022/12/10 11:29:27;;;;;;;5.50;3.20;;;5.00;99.90;;;;;;5053251;28;20025;-69
2022/12/10 11:32:10;;;;;;;6.23;3.87;;;5.10;99.90;;;;;;5048652;28;20017;-68
2022/12/10 11:34:45;;;;;;;7.32;3.90;;;5.00;99.90;;;;;;5039351;28;20025;-70
2022/12/10 11:37:35;;;;;;;7.15;3.78;;;5.10;99.90;;;;;;5051279;28;20091;-70
2022/12/10 11:40:06;;;;;;;13.70;5.38;;;5.10;99.90;;;;;;5052717;28;20473;-70
2022/12/10 11:42:38;;;;;;;12.40;5.25;;;5.20;99.90;;;;;;5036934;28;20030;-68
2022/12/10 11:45:39;;;;;;;13.50;5.10;;;5.20;99.90;;;;;;5052867;28;20047;-70
2022/12/10 11:48:07;;;;;;;9.38;5.13;;;5.20;99.90;;;;;;5050186;28;20067;-69
2022/12/10 11:50:39;;;;;;;7.93;4.32;;;5.30;99.90;;;;;;5036546;28;20390;-70
2022/12/10 11:53:17;;;;;;;7.95;3.70;;;5.50;99.90;;;;;;5033025;28;20029;-69
2022/12/10 11:55:54;;;;;;;5.88;3.65;;;5.70;99.90;;;;;;5033354;28;20590;-70
2022/12/10 11:58:45;;;;;;;7.25;4.13;;;5.90;99.90;;;;;;5052459;28;20469;-68
2022/12/10 12:01:29;;;;;;;6.95;3.53;;;6.40;99.90;;;;;;5041159;28;20440;-69
2022/12/10 12:04:16;;;;;;;4.72;3.50;;;6.70;99.90;;;;;;5051285;28;20064;-71
2022/12/10 12:07:07;;;;;;;9.35;3.90;;;6.90;99.90;;;;;;5052117;28;20569;-71
2022/12/10 12:09:57;;;;;;;6.32;4.35;;;7.10;99.90;;;;;;5052385;28;20029;-72
2022/12/10 12:12:28;;;;;;;9.32;4.57;;;7.40;99.90;;;;;;5052655;28;20048;-71
2022/12/10 12:15:20;;;;;;;10.13;5.38;;;7.50;99.90;;;;;;5049811;28;20501;-71
2022/12/10 12:17:54;;;;;;;11.27;6.22;;;7.50;99.90;;;;;;5034953;28;20045;-73
2022/12/10 12:20:23;;;;;;;10.35;5.20;;;7.70;99.90;;;;;;5047738;28;20029;-73
2022/12/10 12:23:14;;;;;;;15.68;6.13;;;8.00;99.90;;;;;;5049313;28;20033;-73
2022/12/10 12:25:45;;;;;;;8.95;4.55;;;8.60;99.90;;;;;;5032949;28;20052;-72
2022/12/10 12:28:32;;;;;;;11.95;4.55;;;9.10;99.90;;;;;;5048683;28;20025;-72
2022/12/10 12:31:08;;;;;;;7.40;4.10;;;9.60;99.90;;;;;;5052035;28;20402;-74
2022/12/10 12:33:51;;;;;;;5.63;3.60;;;10.30;99.90;;;;;;5050647;28;20036;-72
2022/12/10 12:36:24;;;;;;;6.55;3.40;;;10.80;99.90;;;;;;5047968;28;20024;-72
2022/12/10 12:39:08;;;;;;;13.20;7.20;;;11.30;99.90;;;;;;5049269;28;20029;-72
2022/12/10 12:41:43;;;;;;;5.82;3.03;;;11.70;99.90;;;;;;5051638;28;20105;-70
2022/12/10 12:44:29;;;;;;;6.47;2.75;;;12.10;99.90;;;;;;5051585;28;20055;-70
2022/12/10 12:46:58;;;;;;;3.90;1.27;;;12.10;99.90;;;;;;5050225;28;20028;-69
2022/12/10 12:49:39;;;;;;;2.70;1.20;;;12.10;99.90;;;;;;5049870;28;20111;-69
2022/12/10 12:52:36;;;;;;;2.25;0.90;;;12.30;99.90;;;;;;5049411;28;20051;-67
2022/12/10 12:55:11;;;;;;;2.33;1.00;;;12.50;99.90;;;;;;5035027;28;20075;-68
2022/12/10 12:57:49;;;;;;;4.80;1.55;;;12.50;99.90;;;;;;5040688;28;20025;-66
2022/12/10 13:00:21;;;;;;;2.80;1.00;;;12.50;99.90;;;;;;5039313;28;20033;-67
2022/12/10 13:03:24;;;;;;;3.42;1.13;;;12.70;99.90;;;;;;5044930;28;20029;-68
2022/12/10 13:05:50;;;;;;;3.00;1.63;;;12.60;99.90;;;;;;5051193;28;20052;-69
2022/12/10 13:08:19;;;;;;;3.95;1.20;;;12.70;99.90;;;;;;5039775;28;20492;-69
2022/12/10 13:11:00;;;;;;;3.95;1.23;;;13.10;99.90;;;;;;5031441;28;20104;-69
2022/12/10 13:13:31;;;;;;;2.30;1.30;;;12.50;99.90;;;;;;5031300;28;20087;-69
2022/12/10 13:16:36;;;;;;;1.38;1.05;;;12.00;99.90;;;;;;5031074;28;20025;-71
2022/12/10 13:19:19;;;;;;;4.38;1.70;;;11.50;99.90;;;;;;5031345;28;20044;-69
2022/12/10 13:21:51;;;;;;;4.45;1.60;;;10.90;99.90;;;;;;5030667;28;20501;-69